createdAt,value
2023-03-26T00:00:26.932Z,6.80
2023-03-26T00:00:59.831Z,6.77
2023-03-26T00:01:36.447Z,6.77
2023-03-26T00:02:08.313Z,6.78
2023-03-26T00:02:39.932Z,6.76
2023-03-26T00:03:12.436Z,6.76
2023-03-26T00:03:47.135Z,6.76
2023-03-26T00:04:21.694Z,6.83
2023-03-26T00:04:53.242Z,6.86
2023-03-26T00:05:24.781Z,6.74
2023-03-26T00:06:09.123Z,6.78
2023-03-26T00:06:41.741Z,6.83
2023-03-26T00:07:13.678Z,6.82
2023-03-26T00:07:45.205Z,6.78
2023-03-26T00:08:17.157Z,6.78
2023-03-26T00:08:50.079Z,6.81
2023-03-26T00:09:21.660Z,6.78
2023-03-26T00:09:53.425Z,6.80
2023-03-26T00:10:25.481Z,6.82
2023-03-26T00:10:57.050Z,6.81
2023-03-26T00:11:29.560Z,6.78
2023-03-26T00:12:01.131Z,6.82
2023-03-26T00:12:32.630Z,6.80
2023-03-26T00:13:05.738Z,6.83
2023-03-26T00:13:37.963Z,6.83
2023-03-26T00:14:13.717Z,6.78
2023-03-26T00:14:46.352Z,6.77
2023-03-26T00:15:18.005Z,6.79
2023-03-26T00:15:49.549Z,6.80
2023-03-26T00:16:21.191Z,6.75
2023-03-26T00:16:53.725Z,6.74
2023-03-26T00:17:25.384Z,6.75
2023-03-26T00:17:56.925Z,6.74
2023-03-26T00:18:31.535Z,6.74
2023-03-26T00:19:04.092Z,6.76
2023-03-26T00:19:35.604Z,6.74
2023-03-26T00:20:08.312Z,6.78
2023-03-26T00:20:41.415Z,6.75
2023-03-26T00:21:15.494Z,6.74
2023-03-26T00:21:48.372Z,6.75
2023-03-26T00:22:19.974Z,6.86
2023-03-26T00:22:51.508Z,6.83
2023-03-26T00:23:23.007Z,6.78
2023-03-26T00:23:56.561Z,6.79
2023-03-26T00:24:29.743Z,6.81
2023-03-26T00:25:01.474Z,6.78
2023-03-26T00:25:34.203Z,6.79
2023-03-26T00:26:10.494Z,6.77
2023-03-26T00:26:42.608Z,6.76
2023-03-26T00:27:14.617Z,6.73
2023-03-26T00:27:46.338Z,6.74
2023-03-26T00:28:21.462Z,6.75
2023-03-26T00:28:53.058Z,6.80
2023-03-26T00:29:24.787Z,6.81
2023-03-26T00:29:56.430Z,6.81
2023-03-26T00:30:28.117Z,6.77
2023-03-26T00:31:01.543Z,6.80
2023-03-26T00:31:33.213Z,6.82
2023-03-26T00:32:05.142Z,6.81
2023-03-26T00:32:36.767Z,6.82
2023-03-26T00:33:08.484Z,6.84
2023-03-26T00:33:41.359Z,6.82
2023-03-26T00:34:15.575Z,6.80
2023-03-26T00:34:47.269Z,6.80
2023-03-26T00:35:18.809Z,6.80
2023-03-26T00:35:54.464Z,6.80
2023-03-26T00:36:26.734Z,6.84
2023-03-26T00:37:02.417Z,6.78
2023-03-26T00:37:33.973Z,6.82
2023-03-26T00:38:05.558Z,6.81
2023-03-26T00:38:39.080Z,6.75
2023-03-26T00:39:10.869Z,6.75
2023-03-26T00:39:42.760Z,6.79
2023-03-26T00:40:14.344Z,6.80
2023-03-26T00:40:48.101Z,6.75
2023-03-26T00:41:25.331Z,6.77
2023-03-26T00:41:56.919Z,6.81
2023-03-26T00:42:29.419Z,6.92
2023-03-26T00:43:02.321Z,6.87
2023-03-26T00:43:35.943Z,6.83
2023-03-26T00:44:07.485Z,6.83
2023-03-26T00:44:39.101Z,6.80
2023-03-26T00:45:11.225Z,6.78
2023-03-26T00:45:42.901Z,6.78
2023-03-26T00:46:14.826Z,6.76
2023-03-26T00:46:47.249Z,6.80
2023-03-26T00:47:18.830Z,6.78
2023-03-26T00:47:50.658Z,6.80
2023-03-26T00:48:34.334Z,6.77
2023-03-26T00:49:14.926Z,6.84
2023-03-26T00:49:46.883Z,6.85
2023-03-26T00:50:18.475Z,6.82
2023-03-26T00:50:50.537Z,6.87
2023-03-26T00:51:22.246Z,6.82
2023-03-26T00:51:53.844Z,6.82
2023-03-26T00:52:28.525Z,6.85
2023-03-26T00:53:00.045Z,6.77
2023-03-26T00:53:32.205Z,6.77
2023-03-26T00:54:08.161Z,6.81
2023-03-26T00:54:40.228Z,6.78
2023-03-26T00:55:12.830Z,6.76
2023-03-26T00:55:47.136Z,6.72
2023-03-26T00:56:19.287Z,6.72
2023-03-26T00:56:50.925Z,6.71
2023-03-26T00:57:34.529Z,6.70
2023-03-26T00:58:10.876Z,6.70
2023-03-26T00:58:42.632Z,6.65
2023-03-26T00:59:14.281Z,6.68
2023-03-26T00:59:46.114Z,6.70
2023-03-26T01:00:18.878Z,6.75
2023-03-26T01:00:59.725Z,6.73
2023-03-26T01:01:32.373Z,6.70
2023-03-26T01:02:04.907Z,6.72
2023-03-26T01:02:36.950Z,6.75
2023-03-26T01:03:57.108Z,6.70
2023-03-26T01:04:39.558Z,6.66
2023-03-26T01:05:33.880Z,6.71
2023-03-26T01:06:08.294Z,6.65
2023-03-26T01:06:42.257Z,6.64
2023-03-26T01:07:21.800Z,6.71
2023-03-26T01:07:54.007Z,6.71
2023-03-26T01:08:31.478Z,6.70
2023-03-26T01:09:07.330Z,6.71
2023-03-26T01:09:45.022Z,6.73
2023-03-26T01:10:16.553Z,6.70
2023-03-26T01:10:52.497Z,6.71
2023-03-26T01:11:27.361Z,6.71
2023-03-26T01:12:01.951Z,6.71
2023-03-26T01:12:33.457Z,6.71
2023-03-26T01:13:05.060Z,6.69
2023-03-26T01:13:38.172Z,6.69
2023-03-26T01:14:16.302Z,6.65
2023-03-26T01:14:50.578Z,6.63
2023-03-26T01:15:22.590Z,6.62
2023-03-26T01:15:54.845Z,6.58
2023-03-26T01:16:31.576Z,6.51
2023-03-26T01:17:06.848Z,6.49
2023-03-26T01:17:38.657Z,6.53
2023-03-26T01:18:13.812Z,6.58
2023-03-26T01:18:45.911Z,6.50
2023-03-26T01:19:26.018Z,6.48
2023-03-26T01:20:06.000Z,6.54
2023-03-26T01:20:46.887Z,6.50
2023-03-26T01:21:22.585Z,6.49
2023-03-26T01:21:54.113Z,6.47
2023-03-26T01:22:27.303Z,6.47
2023-03-26T01:23:05.276Z,6.46
2023-03-26T01:23:46.880Z,6.47
2023-03-26T01:24:18.404Z,6.46
2023-03-26T01:24:54.210Z,6.48
2023-03-26T01:25:28.308Z,6.46
2023-03-26T01:26:31.234Z,6.62
2023-03-26T01:27:17.846Z,6.61
2023-03-26T01:27:50.784Z,6.54
2023-03-26T01:28:25.241Z,6.54
2023-03-26T01:28:59.836Z,6.51
2023-03-26T01:29:54.136Z,6.49
2023-03-26T01:31:06.672Z,6.54
2023-03-26T01:32:13.406Z,6.47
2023-03-26T01:33:16.244Z,6.51
2023-03-26T01:34:12.324Z,6.53
2023-03-26T01:34:44.018Z,6.53
2023-03-26T01:35:30.561Z,6.45
2023-03-26T01:36:09.392Z,6.40
2023-03-26T01:36:57.529Z,6.40
2023-03-26T01:37:37.198Z,6.36
2023-03-26T01:38:30.505Z,6.36
2023-03-26T01:39:28.845Z,6.34
2023-03-26T01:40:07.659Z,6.33
2023-03-26T01:40:52.371Z,6.47
2023-03-26T01:41:29.584Z,6.55
2023-03-26T01:42:10.840Z,6.57
2023-03-26T01:42:48.969Z,6.45
2023-03-26T01:43:46.208Z,6.40
2023-03-26T01:44:35.576Z,6.33
2023-03-26T01:45:08.520Z,6.30
2023-03-26T01:45:42.425Z,6.27
2023-03-26T01:46:15.530Z,6.35
2023-03-26T01:46:47.871Z,6.28
2023-03-26T01:47:19.547Z,6.20
2023-03-26T01:47:51.404Z,6.12
2023-03-26T01:48:30.404Z,6.07
2023-03-26T01:49:04.586Z,6.01
2023-03-26T01:49:36.441Z,6.02
2023-03-26T01:50:08.717Z,6.03
2023-03-26T01:50:40.296Z,6.01
2023-03-26T01:51:13.453Z,6.03
2023-03-26T01:51:45.288Z,6.02
2023-03-26T01:52:21.280Z,6.06
2023-03-26T01:52:52.819Z,6.02
2023-03-26T01:53:24.657Z,5.94
2023-03-26T01:53:57.124Z,5.83
2023-03-26T01:54:30.386Z,5.79
2023-03-26T01:55:02.802Z,5.80
2023-03-26T01:55:57.545Z,5.75
2023-03-26T01:56:42.757Z,5.79
2023-03-26T01:57:24.183Z,5.91
2023-03-26T01:58:13.666Z,5.93
2023-03-26T01:58:57.069Z,5.86
2023-03-26T01:59:43.751Z,5.87
2023-03-26T02:00:25.618Z,5.85
2023-03-26T02:01:06.000Z,5.87
2023-03-26T02:01:46.027Z,5.83
2023-03-26T02:02:39.288Z,5.87
2023-03-26T02:03:21.203Z,5.86
2023-03-26T02:04:11.436Z,6.01
2023-03-26T02:04:57.763Z,5.99
2023-03-26T02:05:33.409Z,5.99
2023-03-26T02:06:15.666Z,6.04
2023-03-26T02:06:51.684Z,6.01
2023-03-26T02:08:11.966Z,6.11
2023-03-26T02:09:01.488Z,6.25
2023-03-26T02:09:39.318Z,6.11
2023-03-26T02:10:18.188Z,6.09
2023-03-26T02:10:54.671Z,6.15
2023-03-26T02:11:34.719Z,6.21
2023-03-26T02:12:07.109Z,6.11
2023-03-26T02:12:38.858Z,6.18
2023-03-26T02:13:12.241Z,6.19
2023-03-26T02:13:45.791Z,6.24
2023-03-26T02:14:17.473Z,6.39
2023-03-26T02:14:49.423Z,6.38
2023-03-26T02:15:22.461Z,6.34
2023-03-26T02:16:01.798Z,6.30
2023-03-26T02:16:33.669Z,6.22
2023-03-26T02:17:06.105Z,6.29
2023-03-26T02:17:40.417Z,6.34
2023-03-26T02:18:13.424Z,6.25
2023-03-26T02:18:47.408Z,6.26
2023-03-26T02:19:21.830Z,6.26
2023-03-26T02:19:54.176Z,6.28
2023-03-26T02:20:30.036Z,6.28
2023-03-26T02:21:03.667Z,6.31
2023-03-26T02:21:35.305Z,6.31
2023-03-26T02:22:11.079Z,6.35
2023-03-26T02:22:46.009Z,6.32
2023-03-26T02:23:21.016Z,6.27
2023-03-26T02:24:02.760Z,6.35
2023-03-26T02:24:38.413Z,6.34
2023-03-26T02:25:12.774Z,6.39
2023-03-26T02:25:44.417Z,6.53
2023-03-26T02:26:18.370Z,6.42
2023-03-26T02:27:12.344Z,6.37
2023-03-26T02:27:46.192Z,6.38
2023-03-26T02:28:17.941Z,6.35
2023-03-26T02:28:49.717Z,6.34
2023-03-26T02:29:21.371Z,6.32
2023-03-26T02:29:54.363Z,6.30
2023-03-26T02:30:29.649Z,6.32
2023-03-26T02:31:03.826Z,6.32
2023-03-26T02:31:36.025Z,6.37
2023-03-26T02:32:08.999Z,6.34
2023-03-26T02:32:40.519Z,6.30
2023-03-26T02:33:15.275Z,6.30
2023-03-26T02:33:47.658Z,6.48
2023-03-26T02:34:20.462Z,6.70
2023-03-26T02:34:57.386Z,6.71
2023-03-26T02:35:29.614Z,6.70
2023-03-26T02:36:05.163Z,6.64
2023-03-26T02:36:36.911Z,6.58
2023-03-26T02:37:09.793Z,6.57
2023-03-26T02:37:46.894Z,6.54
2023-03-26T02:38:25.268Z,6.52
2023-03-26T02:39:00.306Z,6.49
2023-03-26T02:39:34.495Z,6.48
2023-03-26T02:40:14.058Z,6.49
2023-03-26T02:40:47.856Z,6.54
2023-03-26T02:41:19.679Z,6.55
2023-03-26T02:42:01.463Z,6.57
2023-03-26T02:42:34.310Z,6.49
2023-03-26T02:43:06.003Z,6.54
2023-03-26T02:43:38.756Z,6.56
2023-03-26T02:44:12.363Z,6.60
2023-03-26T02:45:16.561Z,6.66
2023-03-26T02:46:14.595Z,6.56
2023-03-26T02:46:57.385Z,6.56
2023-03-26T02:47:47.161Z,6.59
2023-03-26T02:48:41.586Z,6.58
2023-03-26T02:49:20.362Z,6.54
2023-03-26T02:49:51.886Z,6.56
2023-03-26T02:50:32.497Z,6.62
2023-03-26T02:51:22.789Z,6.56
2023-03-26T02:52:06.544Z,6.51
2023-03-26T02:52:39.474Z,6.49
2023-03-26T02:53:11.922Z,6.50
2023-03-26T02:53:46.077Z,6.50
2023-03-26T02:54:37.046Z,6.62
2023-03-26T02:55:28.154Z,6.58
2023-03-26T02:56:03.748Z,6.60
2023-03-26T02:56:42.875Z,6.84
2023-03-26T02:57:49.898Z,6.77
2023-03-26T02:58:25.354Z,6.67
2023-03-26T02:58:57.437Z,6.63
2023-03-26T02:59:29.251Z,6.67
2023-03-26T03:00:33.685Z,6.91
2023-03-26T03:01:35.029Z,6.76
2023-03-26T03:02:07.234Z,6.81
2023-03-26T03:02:40.302Z,6.90
2023-03-26T03:03:41.535Z,6.84
2023-03-26T03:04:35.269Z,6.83
2023-03-26T03:05:08.309Z,6.77
2023-03-26T03:05:43.234Z,6.78
2023-03-26T03:06:44.730Z,6.76
2023-03-26T03:07:16.354Z,6.76
2023-03-26T03:07:48.271Z,6.73
2023-03-26T03:08:26.303Z,6.71
2023-03-26T03:09:15.361Z,6.72
2023-03-26T03:09:50.628Z,6.70
2023-03-26T03:10:41.168Z,6.71
2023-03-26T03:11:24.885Z,6.69
2023-03-26T03:11:56.771Z,6.70
2023-03-26T03:12:28.467Z,6.68
2023-03-26T03:13:00.131Z,6.67
2023-03-26T03:13:31.668Z,6.69
2023-03-26T03:14:03.810Z,6.68
2023-03-26T03:14:37.776Z,6.67
2023-03-26T03:15:09.696Z,6.68
2023-03-26T03:15:41.295Z,6.68
2023-03-26T03:16:14.147Z,6.63
2023-03-26T03:16:46.164Z,6.67
2023-03-26T03:17:20.041Z,6.68
2023-03-26T03:17:51.695Z,6.69
2023-03-26T03:18:23.412Z,6.68
2023-03-26T03:18:57.871Z,6.66
2023-03-26T03:19:37.841Z,6.64
2023-03-26T03:20:09.687Z,6.66
2023-03-26T03:20:43.620Z,6.63
2023-03-26T03:21:15.271Z,6.59
2023-03-26T03:21:46.874Z,6.62
2023-03-26T03:22:18.529Z,6.72
2023-03-26T03:22:52.406Z,6.64
2023-03-26T03:23:24.050Z,6.62
2023-03-26T03:24:00.597Z,6.57
2023-03-26T03:24:36.006Z,6.59
2023-03-26T03:25:17.580Z,6.68
2023-03-26T03:25:52.596Z,6.61
2023-03-26T03:26:29.920Z,6.63
2023-03-26T03:27:05.531Z,6.64
2023-03-26T03:27:45.804Z,6.64
2023-03-26T03:28:19.364Z,6.78
2023-03-26T03:28:51.112Z,6.85
2023-03-26T03:29:23.718Z,6.92
2023-03-26T03:29:55.944Z,6.85
2023-03-26T03:30:47.060Z,6.88
2023-03-26T03:31:26.470Z,6.75
2023-03-26T03:32:02.565Z,6.72
2023-03-26T03:32:46.427Z,6.68
2023-03-26T03:33:24.072Z,6.68
2023-03-26T03:33:55.673Z,6.69
2023-03-26T03:34:28.071Z,6.71
2023-03-26T03:34:59.831Z,6.72
2023-03-26T03:35:32.038Z,6.73
2023-03-26T03:36:10.517Z,6.73
2023-03-26T03:36:52.487Z,6.86
2023-03-26T03:37:46.992Z,6.72
2023-03-26T03:38:19.264Z,6.71
2023-03-26T03:38:53.479Z,6.75
2023-03-26T03:39:26.786Z,6.82
2023-03-26T03:39:58.489Z,6.83
2023-03-26T03:40:32.285Z,6.88
2023-03-26T03:41:04.173Z,6.85
2023-03-26T03:41:38.616Z,6.84
2023-03-26T03:42:15.737Z,6.83
2023-03-26T03:42:47.414Z,6.85
2023-03-26T03:43:30.344Z,6.83
2023-03-26T03:44:12.444Z,6.89
2023-03-26T03:44:44.279Z,6.89
2023-03-26T03:45:34.070Z,6.83
2023-03-26T03:46:15.076Z,6.79
2023-03-26T03:46:53.933Z,6.74
2023-03-26T03:47:26.140Z,6.78
2023-03-26T03:47:57.706Z,6.80
2023-03-26T03:48:40.609Z,6.80
2023-03-26T03:49:13.460Z,6.91
2023-03-26T03:49:45.190Z,6.90
2023-03-26T03:50:17.086Z,6.93
2023-03-26T03:51:06.333Z,6.88
2023-03-26T03:51:57.097Z,6.93
2023-03-26T03:52:37.967Z,6.90
2023-03-26T03:53:09.781Z,6.97
2023-03-26T03:53:41.495Z,7.04
2023-03-26T03:54:14.558Z,6.99
2023-03-26T03:54:51.908Z,6.95
2023-03-26T03:55:38.249Z,6.86
2023-03-26T03:56:10.539Z,6.90
2023-03-26T03:57:02.109Z,6.89
2023-03-26T03:57:43.906Z,6.87
2023-03-26T03:58:24.668Z,6.89
2023-03-26T03:58:58.488Z,6.87
2023-03-26T03:59:37.465Z,6.88
2023-03-26T04:00:13.018Z,6.89
2023-03-26T04:00:48.809Z,6.87
2023-03-26T04:01:51.315Z,6.84
2023-03-26T04:02:36.378Z,6.81
2023-03-26T04:03:14.332Z,6.81
2023-03-26T04:03:47.444Z,6.85
2023-03-26T04:04:21.981Z,6.93
2023-03-26T04:05:00.735Z,6.90
2023-03-26T04:05:33.410Z,6.92
2023-03-26T04:06:08.260Z,6.93
2023-03-26T04:06:39.984Z,6.93
2023-03-26T04:07:13.172Z,6.88
2023-03-26T04:08:02.911Z,7.05
2023-03-26T04:09:00.682Z,7.02
2023-03-26T04:09:32.298Z,6.95
2023-03-26T04:10:09.499Z,7.04
2023-03-26T04:10:59.618Z,7.00
2023-03-26T04:12:03.344Z,6.92
2023-03-26T04:12:43.508Z,6.92
2023-03-26T04:13:20.159Z,6.95
2023-03-26T04:14:10.443Z,7.08
2023-03-26T04:15:01.911Z,6.94
2023-03-26T04:15:36.023Z,6.98
2023-03-26T04:16:08.429Z,6.95
2023-03-26T04:16:40.353Z,6.95
2023-03-26T04:17:13.620Z,6.93
2023-03-26T04:17:45.460Z,6.96
2023-03-26T04:18:20.364Z,6.92
2023-03-26T04:18:52.193Z,6.87
2023-03-26T04:19:24.700Z,6.88
2023-03-26T04:19:56.283Z,7.07
2023-03-26T04:20:33.870Z,7.01
2023-03-26T04:21:07.421Z,6.98
2023-03-26T04:21:39.600Z,6.95
2023-03-26T04:22:11.937Z,6.94
2023-03-26T04:22:57.998Z,7.05
2023-03-26T04:23:32.112Z,7.22
2023-03-26T04:24:10.911Z,7.06
2023-03-26T04:25:13.114Z,7.11
2023-03-26T04:25:54.032Z,7.05
2023-03-26T04:26:31.637Z,7.04
2023-03-26T04:27:13.086Z,7.04
2023-03-26T04:27:46.255Z,7.08
2023-03-26T04:28:46.336Z,7.07
2023-03-26T04:29:25.682Z,7.12
2023-03-26T04:29:58.181Z,7.12
2023-03-26T04:30:29.829Z,7.06
2023-03-26T04:31:24.427Z,7.12
2023-03-26T04:32:06.481Z,7.05
2023-03-26T04:32:40.373Z,7.10
2023-03-26T04:33:15.428Z,7.08
2023-03-26T04:33:48.392Z,7.19
2023-03-26T04:34:26.002Z,7.23
2023-03-26T04:35:06.824Z,7.10
2023-03-26T04:35:41.660Z,7.12
2023-03-26T04:36:15.904Z,7.08
2023-03-26T04:36:48.173Z,7.13
2023-03-26T04:37:32.387Z,7.12
2023-03-26T04:38:11.925Z,7.20
2023-03-26T04:38:49.369Z,7.21
2023-03-26T04:39:22.980Z,7.18
2023-03-26T04:40:21.984Z,7.22
2023-03-26T04:41:20.202Z,7.35
2023-03-26T04:42:05.843Z,7.21
2023-03-26T04:42:48.451Z,7.18
2023-03-26T04:43:30.239Z,7.18
2023-03-26T04:44:31.835Z,7.10
2023-03-26T04:45:16.389Z,7.11
2023-03-26T04:45:50.226Z,7.21
2023-03-26T04:46:24.004Z,7.23
2023-03-26T04:47:05.232Z,7.27
2023-03-26T04:47:46.399Z,7.31
2023-03-26T04:48:18.148Z,7.23
2023-03-26T04:48:53.549Z,7.17
2023-03-26T04:49:25.445Z,7.13
2023-03-26T04:49:57.355Z,7.14
2023-03-26T04:50:29.248Z,7.24
2023-03-26T04:51:01.381Z,7.15
2023-03-26T04:51:38.375Z,7.21
2023-03-26T04:52:18.056Z,7.13
2023-03-26T04:53:27.491Z,7.23
2023-03-26T04:54:02.721Z,7.22
2023-03-26T04:54:38.901Z,7.28
2023-03-26T04:55:48.897Z,7.13
2023-03-26T04:56:47.377Z,7.18
2023-03-26T04:57:28.810Z,7.06
2023-03-26T04:58:07.540Z,7.08
2023-03-26T04:58:59.883Z,7.11
2023-03-26T04:59:37.192Z,7.00
2023-03-26T05:00:16.409Z,7.07
2023-03-26T05:00:50.821Z,7.10
2023-03-26T05:01:24.385Z,7.33
2023-03-26T05:01:58.093Z,7.38
2023-03-26T05:02:32.551Z,7.35
2023-03-26T05:03:04.382Z,7.31
2023-03-26T05:03:40.661Z,7.26
2023-03-26T05:04:15.495Z,7.21
2023-03-26T05:04:49.887Z,7.12
2023-03-26T05:05:22.557Z,7.09
2023-03-26T05:05:55.466Z,7.05
2023-03-26T05:06:28.604Z,7.02
2023-03-26T05:07:00.792Z,7.00
2023-03-26T05:07:41.733Z,6.98
2023-03-26T05:08:14.759Z,6.97
2023-03-26T05:08:46.338Z,6.96
2023-03-26T05:09:28.246Z,6.97
2023-03-26T05:10:20.588Z,6.96
2023-03-26T05:11:11.472Z,6.95
2023-03-26T05:11:43.370Z,6.94
2023-03-26T05:12:16.456Z,6.95
2023-03-26T05:13:01.582Z,6.93
2023-03-26T05:13:38.862Z,6.94
2023-03-26T05:14:18.847Z,6.92
2023-03-26T05:14:53.575Z,6.85
2023-03-26T05:15:35.653Z,6.85
2023-03-26T05:16:31.783Z,6.87
2023-03-26T05:17:14.800Z,6.86
2023-03-26T05:17:46.491Z,6.93
2023-03-26T05:18:26.411Z,7.00
2023-03-26T05:18:58.618Z,6.96
2023-03-26T05:19:35.192Z,6.95
2023-03-26T05:20:26.736Z,6.99
2023-03-26T05:20:58.309Z,6.94
2023-03-26T05:21:31.277Z,7.01
2023-03-26T05:22:03.180Z,6.99
2023-03-26T05:22:38.590Z,7.02
2023-03-26T05:23:24.523Z,7.10
2023-03-26T05:24:06.426Z,7.15
2023-03-26T05:24:38.085Z,7.08
2023-03-26T05:25:10.556Z,7.04
2023-03-26T05:25:42.154Z,7.05
2023-03-26T05:26:22.223Z,7.07
2023-03-26T05:26:54.550Z,7.07
2023-03-26T05:27:28.185Z,7.16
2023-03-26T05:27:59.743Z,7.12
2023-03-26T05:28:37.991Z,7.11
2023-03-26T05:29:22.368Z,7.09
2023-03-26T05:30:01.345Z,7.04
2023-03-26T05:30:34.055Z,7.14
2023-03-26T05:31:08.137Z,7.05
2023-03-26T05:31:44.247Z,7.11
2023-03-26T05:32:15.938Z,7.17
2023-03-26T05:32:51.916Z,7.16
2023-03-26T05:33:29.189Z,7.11
2023-03-26T05:34:11.308Z,7.13
2023-03-26T05:34:43.048Z,7.07
2023-03-26T05:35:17.240Z,7.06
2023-03-26T05:35:59.526Z,7.01
2023-03-26T05:36:31.249Z,6.97
2023-03-26T05:37:24.756Z,6.99
2023-03-26T05:38:04.984Z,6.99
2023-03-26T05:38:37.047Z,7.11
2023-03-26T05:39:10.737Z,7.10
2023-03-26T05:40:01.433Z,7.06
2023-03-26T05:40:46.210Z,6.99
2023-03-26T05:41:22.532Z,7.11
2023-03-26T05:41:54.926Z,7.07
2023-03-26T05:42:32.542Z,7.03
2023-03-26T05:43:22.378Z,7.08
2023-03-26T05:44:14.219Z,7.06
2023-03-26T05:44:45.921Z,6.98
2023-03-26T05:45:25.762Z,6.94
2023-03-26T05:45:57.383Z,6.95
2023-03-26T05:46:32.349Z,6.93
2023-03-26T05:47:04.732Z,6.90
2023-03-26T05:47:36.492Z,6.88
2023-03-26T05:48:08.037Z,6.92
2023-03-26T05:48:39.742Z,6.96
2023-03-26T05:49:12.141Z,6.95
2023-03-26T05:49:43.896Z,6.95
2023-03-26T05:50:15.872Z,6.94
2023-03-26T05:50:49.820Z,7.00
2023-03-26T05:51:23.486Z,7.02
2023-03-26T05:52:24.300Z,7.04
2023-03-26T05:53:17.338Z,7.09
2023-03-26T05:54:21.167Z,7.18
2023-03-26T05:55:13.384Z,7.19
2023-03-26T05:56:16.842Z,7.10
2023-03-26T05:57:06.859Z,7.25
2023-03-26T05:57:57.256Z,7.13
2023-03-26T05:58:47.678Z,7.10
2023-03-26T05:59:37.599Z,7.12
2023-03-26T06:00:41.059Z,7.22
2023-03-26T06:01:18.534Z,7.32
2023-03-26T06:02:10.205Z,7.42
2023-03-26T06:03:20.137Z,7.31
2023-03-26T06:04:12.835Z,7.40
2023-03-26T06:04:51.137Z,7.26
2023-03-26T06:05:46.163Z,7.28
2023-03-26T06:06:23.918Z,7.16
2023-03-26T06:07:02.147Z,7.16
2023-03-26T06:07:34.022Z,7.16
2023-03-26T06:08:15.920Z,7.21
2023-03-26T06:09:01.154Z,7.18
2023-03-26T06:09:34.490Z,7.19
2023-03-26T06:10:06.781Z,7.19
2023-03-26T06:10:39.346Z,7.23
2023-03-26T06:11:12.606Z,7.35
2023-03-26T06:11:44.308Z,7.43
2023-03-26T06:12:16.210Z,7.52
2023-03-26T06:12:49.651Z,7.60
2023-03-26T06:13:21.483Z,7.67
2023-03-26T06:13:54.913Z,7.70
2023-03-26T06:14:26.614Z,7.69
2023-03-26T06:15:12.489Z,7.70
2023-03-26T06:15:52.369Z,7.70
2023-03-26T06:16:47.013Z,7.70
2023-03-26T06:17:26.089Z,7.65
2023-03-26T06:18:11.248Z,7.65
2023-03-26T06:19:04.111Z,7.63
2023-03-26T06:19:44.016Z,7.60
2023-03-26T06:20:25.781Z,7.59
2023-03-26T06:20:58.775Z,7.57
2023-03-26T06:21:53.934Z,7.60
2023-03-26T06:22:29.066Z,7.64
2023-03-26T06:23:22.810Z,7.63
2023-03-26T06:24:16.464Z,7.62
2023-03-26T06:25:08.493Z,7.59
2023-03-26T06:25:56.138Z,7.57
2023-03-26T06:26:51.227Z,7.55
2023-03-26T06:27:43.031Z,7.56
2023-03-26T06:28:47.418Z,7.53
2023-03-26T06:29:33.397Z,7.56
2023-03-26T06:30:18.117Z,7.55
2023-03-26T06:31:07.019Z,7.52
2023-03-26T06:31:41.884Z,7.52
2023-03-26T06:32:23.362Z,7.51
2023-03-26T06:33:10.970Z,7.50
2023-03-26T06:33:49.087Z,7.49
2023-03-26T06:34:20.971Z,7.50
2023-03-26T06:34:52.899Z,7.50
2023-03-26T06:35:24.805Z,7.51
2023-03-26T06:35:56.771Z,7.52
2023-03-26T06:36:29.110Z,7.52
2023-03-26T06:37:00.700Z,7.53
2023-03-26T06:37:33.061Z,7.53
2023-03-26T06:38:07.675Z,7.53
2023-03-26T06:38:39.551Z,7.54
2023-03-26T06:39:12.282Z,7.57
2023-03-26T06:39:52.224Z,7.58
2023-03-26T06:40:27.063Z,7.60
2023-03-26T06:41:10.728Z,7.62
2023-03-26T06:41:45.002Z,7.61
2023-03-26T06:43:06.841Z,7.63
2023-03-26T06:43:44.743Z,7.62
2023-03-26T06:44:36.267Z,7.60
2023-03-26T06:45:27.805Z,7.62
2023-03-26T06:46:18.739Z,7.60
2023-03-26T06:47:08.904Z,7.60
2023-03-26T06:47:55.473Z,7.61
2023-03-26T06:48:48.121Z,7.59
2023-03-26T06:49:39.342Z,7.61
2023-03-26T06:50:21.699Z,7.61
2023-03-26T06:50:59.085Z,7.62
2023-03-26T06:51:48.872Z,7.62
2023-03-26T06:52:40.693Z,7.62
2023-03-26T06:53:30.733Z,7.62
2023-03-26T06:54:20.841Z,7.61
2023-03-26T06:55:01.645Z,7.59
2023-03-26T06:55:54.129Z,7.58
2023-03-26T06:56:25.743Z,7.59
2023-03-26T06:57:09.453Z,7.58
2023-03-26T06:57:59.635Z,7.60
2023-03-26T06:58:57.088Z,7.60
2023-03-26T06:59:47.028Z,7.61
2023-03-26T07:00:37.029Z,7.66
2023-03-26T07:01:26.942Z,7.69
2023-03-26T07:02:17.209Z,7.70
2023-03-26T07:03:07.256Z,7.71
2023-03-26T07:04:00.674Z,7.72
2023-03-26T07:04:50.792Z,7.74
2023-03-26T07:05:41.459Z,7.75
2023-03-26T07:06:35.750Z,7.78
2023-03-26T07:07:26.009Z,7.78
2023-03-26T07:08:16.531Z,7.84
2023-03-26T07:09:06.520Z,7.87
2023-03-26T07:10:13.974Z,7.86
2023-03-26T07:10:56.805Z,7.85
2023-03-26T07:11:48.899Z,7.87
2023-03-26T07:12:38.941Z,7.86
2023-03-26T07:13:29.130Z,7.88
2023-03-26T07:14:03.574Z,7.89
2023-03-26T07:14:47.159Z,7.87
2023-03-26T07:15:48.470Z,7.87
2023-03-26T07:16:43.669Z,7.81
2023-03-26T07:17:34.115Z,7.83
2023-03-26T07:18:10.359Z,7.75
2023-03-26T07:18:44.366Z,7.77
2023-03-26T07:19:35.821Z,7.71
2023-03-26T07:20:08.461Z,7.77
2023-03-26T07:20:40.582Z,7.72
2023-03-26T07:21:12.968Z,7.69
2023-03-26T07:21:46.572Z,7.69
2023-03-26T07:22:47.413Z,7.71
2023-03-26T07:23:37.821Z,7.68
2023-03-26T07:24:24.287Z,7.69
2023-03-26T07:25:19.412Z,7.73
2023-03-26T07:26:25.959Z,7.72
2023-03-26T07:27:36.588Z,7.75
2023-03-26T07:28:29.421Z,7.80
2023-03-26T07:29:27.901Z,7.79
2023-03-26T07:30:11.845Z,7.77
2023-03-26T07:31:42.199Z,7.76
2023-03-26T07:32:54.285Z,7.77
2023-03-26T07:34:04.036Z,7.77
2023-03-26T07:34:45.821Z,7.74
2023-03-26T07:36:05.970Z,7.73
2023-03-26T07:37:04.863Z,7.71
2023-03-26T07:38:14.035Z,7.73
2023-03-26T07:39:19.815Z,7.68
2023-03-26T07:40:43.814Z,7.83
2023-03-26T07:41:34.132Z,7.83
2023-03-26T07:42:30.219Z,7.88
2023-03-26T07:43:22.880Z,7.89
2023-03-26T07:44:48.412Z,7.86
2023-03-26T07:45:41.139Z,7.89
2023-03-26T07:46:36.911Z,7.89
2023-03-26T07:47:27.949Z,7.84
2023-03-26T07:48:37.314Z,7.83
2023-03-26T07:49:17.893Z,7.86
2023-03-26T07:50:17.700Z,7.83
2023-03-26T07:51:11.342Z,7.83
2023-03-26T07:51:56.060Z,7.86
2023-03-26T07:52:52.830Z,7.86
2023-03-26T07:53:35.023Z,7.89
2023-03-26T07:54:32.736Z,7.95
2023-03-26T07:55:33.520Z,7.97
2023-03-26T07:56:54.023Z,7.97
2023-03-26T07:57:57.618Z,7.90
2023-03-26T07:58:48.111Z,7.97
2023-03-26T07:59:51.634Z,8.03
2023-03-26T08:00:54.126Z,8.06
2023-03-26T08:01:59.604Z,8.05
2023-03-26T08:02:55.568Z,8.07
2023-03-26T08:04:23.107Z,8.04
2023-03-26T08:05:26.931Z,8.06
2023-03-26T08:06:35.222Z,8.12
2023-03-26T08:07:45.275Z,8.06
2023-03-26T08:08:36.462Z,8.13
2023-03-26T08:09:39.137Z,8.11
2023-03-26T08:10:53.274Z,8.09
2023-03-26T08:11:53.685Z,8.04
2023-03-26T08:12:35.709Z,8.02
2023-03-26T08:13:16.383Z,8.01
2023-03-26T08:13:59.994Z,7.99
2023-03-26T08:14:48.723Z,7.91
2023-03-26T08:15:32.725Z,7.95
2023-03-26T08:16:24.283Z,7.92
2023-03-26T08:17:11.121Z,7.96
2023-03-26T08:17:49.848Z,7.95
2023-03-26T08:18:36.532Z,7.98
2023-03-26T08:19:26.172Z,7.98
2023-03-26T08:20:15.962Z,7.95
2023-03-26T08:20:53.710Z,7.96
2023-03-26T08:21:35.795Z,8.07
2023-03-26T08:22:31.511Z,8.17
2023-03-26T08:23:12.402Z,8.18
2023-03-26T08:24:17.630Z,8.20
2023-03-26T08:25:18.772Z,8.19
2023-03-26T08:25:56.098Z,8.25
2023-03-26T08:26:44.056Z,8.29
2023-03-26T08:27:16.142Z,8.26
2023-03-26T08:28:08.427Z,8.33
2023-03-26T08:28:53.005Z,8.34
2023-03-26T08:29:36.794Z,8.25
2023-03-26T08:30:14.974Z,8.21
2023-03-26T08:30:47.062Z,8.19
2023-03-26T08:31:19.494Z,8.15
2023-03-26T08:31:51.255Z,8.20
2023-03-26T08:32:24.117Z,8.19
2023-03-26T08:32:58.790Z,8.22
2023-03-26T08:33:30.799Z,8.16
2023-03-26T08:34:02.549Z,8.17
2023-03-26T08:34:34.060Z,8.24
2023-03-26T08:35:06.256Z,8.17
2023-03-26T08:35:42.633Z,8.15
2023-03-26T08:36:14.359Z,8.09
2023-03-26T08:36:46.129Z,8.15
2023-03-26T08:37:17.683Z,8.16
2023-03-26T08:37:49.487Z,8.20
2023-03-26T08:38:21.715Z,8.24
2023-03-26T08:38:53.959Z,8.35
2023-03-26T08:39:25.578Z,8.30
2023-03-26T08:39:57.509Z,8.22
2023-03-26T08:41:00.651Z,8.23
2023-03-26T08:41:55.490Z,8.25
2023-03-26T08:42:58.016Z,8.27
2023-03-26T08:43:48.287Z,8.20
2023-03-26T08:44:40.750Z,8.24
2023-03-26T08:45:19.794Z,8.27
2023-03-26T08:46:01.840Z,8.24
2023-03-26T08:46:51.510Z,8.16
2023-03-26T08:48:03.690Z,8.05
2023-03-26T08:48:45.778Z,8.06
2023-03-26T08:49:31.696Z,8.04
2023-03-26T08:50:19.874Z,7.90
2023-03-26T08:51:38.744Z,7.80
2023-03-26T08:52:28.260Z,7.78
2023-03-26T08:53:18.512Z,7.70
2023-03-26T08:54:15.704Z,7.65
2023-03-26T08:55:41.490Z,7.75
2023-03-26T08:56:37.814Z,7.70
2023-03-26T08:57:25.347Z,7.68
2023-03-26T08:58:24.182Z,7.70
2023-03-26T08:59:20.063Z,7.70
2023-03-26T09:00:31.460Z,7.61
2023-03-26T09:01:18.701Z,7.55
2023-03-26T09:02:07.935Z,7.55
2023-03-26T09:02:48.201Z,7.58